sensor_id;sensor_type;location;lat;lon;timestamp;pressure;altitude;pressure_sealevel;temperature
64296;BMP280;51082;38.236;15.432;2023-09-30T00:00:09;101952.25;;;27.00
64296;BMP280;51082;38.236;15.432;2023-09-30T00:01:13;101954.13;;;26.99
64296;BMP280;51082;38.236;15.432;2023-09-30T00:02:15;101948.00;;;26.98
64296;BMP280;51082;38.236;15.432;2023-09-30T00:03:16;101950.66;;;26.98
64296;BMP280;51082;38.236;15.432;2023-09-30T00:04:19;101952.25;;;27.00
64296;BMP280;51082;38.236;15.432;2023-09-30T00:05:20;101945.31;;;26.98
64296;BMP280;51082;38.236;15.432;2023-09-30T00:06:23;101944.25;;;27.00
64296;BMP280;51082;38.236;15.432;2023-09-30T00:07:24;101948.00;;;26.98
64296;BMP280;51082;38.236;15.432;2023-09-30T00:08:27;101950.66;;;26.98
64296;BMP280;51082;38.236;15.432;2023-09-30T00:09:29;101950.66;;;26.98
64296;BMP280;51082;38.236;15.432;2023-09-30T00:10:31;101944.25;;;27.00
64296;BMP280;51082;38.236;15.432;2023-09-30T00:11:32;101947.69;;;27.00
64296;BMP280;51082;38.236;15.432;2023-09-30T00:12:35;101945.31;;;26.98
64296;BMP280;51082;38.236;15.432;2023-09-30T00:13:37;101944.25;;;27.00
64296;BMP280;51082;38.236;15.432;2023-09-30T00:14:39;101950.66;;;26.98
64296;BMP280;51082;38.236;15.432;2023-09-30T00:15:41;101946.66;;;26.96
64296;BMP280;51082;38.236;15.432;2023-09-30T00:16:45;101944.75;;;26.96
64296;BMP280;51082;38.236;15.432;2023-09-30T00:17:46;101954.94;;;26.94
64296;BMP280;51082;38.236;15.432;2023-09-30T00:18:49;101953.59;;;26.97
64296;BMP280;51082;38.236;15.432;2023-09-30T00:19:50;101948.22;;;26.97
64296;BMP280;51082;38.236;15.432;2023-09-30T00:20:53;101948.22;;;26.97
64296;BMP280;51082;38.236;15.432;2023-09-30T00:21:54;101960.56;;;26.98
64296;BMP280;51082;38.236;15.432;2023-09-30T00:22:57;101958.13;;;26.96
64296;BMP280;51082;38.236;15.432;2023-09-30T00:23:58;101958.44;;;26.95
64296;BMP280;51082;38.236;15.432;2023-09-30T00:25:01;101956.25;;;26.97
64296;BMP280;51082;38.236;15.432;2023-09-30T00:26:02;101957.06;;;26.97
64296;BMP280;51082;38.236;15.432;2023-09-30T00:27:06;101960.56;;;26.98
64296;BMP280;51082;38.236;15.432;2023-09-30T00:28:07;101956.81;;;26.99
64296;BMP280;51082;38.236;15.432;2023-09-30T00:29:09;101956.25;;;26.97
64296;BMP280;51082;38.236;15.432;2023-09-30T00:30:12;101954.38;;;26.97
64296;BMP280;51082;38.236;15.432;2023-09-30T00:31:13;101952.53;;;26.98
64296;BMP280;51082;38.236;15.432;2023-09-30T00:32:17;101949.88;;;26.98
64296;BMP280;51082;38.236;15.432;2023-09-30T00:33:19;101947.44;;;26.96
64296;BMP280;51082;38.236;15.432;2023-09-30T00:34:21;101952.78;;;26.96
64296;BMP280;51082;38.236;15.432;2023-09-30T00:35:22;101950.91;;;26.97
64296;BMP280;51082;38.236;15.432;2023-09-30T00:36:25;101952.00;;;26.96
64296;BMP280;51082;38.236;15.432;2023-09-30T00:37:27;101942.09;;;26.96
64296;BMP280;51082;38.236;15.432;2023-09-30T00:38:29;101945.56;;;26.97
64296;BMP280;51082;38.236;15.432;2023-09-30T00:39:32;101952.78;;;26.96
64296;BMP280;51082;38.236;15.432;2023-09-30T00:40:34;101946.38;;;26.97
64296;BMP280;51082;38.236;15.432;2023-09-30T00:41:38;101944.53;;;26.98
64296;BMP280;51082;38.236;15.432;2023-09-30T00:42:41;101952.00;;;26.96
64296;BMP280;51082;38.236;15.432;2023-09-30T00:43:45;101953.59;;;26.97
64296;BMP280;51082;38.236;15.432;2023-09-30T00:44:47;101944.75;;;26.96
64296;BMP280;51082;38.236;15.432;2023-09-30T00:45:52;101949.03;;;26.97
64296;BMP280;51082;38.236;15.432;2023-09-30T00:46:57;101950.09;;;26.96
64296;BMP280;51082;38.236;15.432;2023-09-30T00:48:02;101942.09;;;26.96
64296;BMP280;51082;38.236;15.432;2023-09-30T00:49:03;101944.53;;;26.98
64296;BMP280;51082;38.236;15.432;2023-09-30T00:50:07;101942.88;;;26.97
64296;BMP280;51082;38.236;15.432;2023-09-30T00:51:09;101942.88;;;26.97
64296;BMP280;51082;38.236;15.432;2023-09-30T00:52:12;101945.56;;;26.97
64296;BMP280;51082;38.236;15.432;2023-09-30T00:53:14;101945.56;;;26.97
64296;BMP280;51082;38.236;15.432;2023-09-30T00:54:17;101943.19;;;26.95
64296;BMP280;51082;38.236;15.432;2023-09-30T00:55:19;101945.56;;;26.97
64296;BMP280;51082;38.236;15.432;2023-09-30T00:56:23;101940.50;;;26.95
64296;BMP280;51082;38.236;15.432;2023-09-30T00:57:26;101940.50;;;26.95
64296;BMP280;51082;38.236;15.432;2023-09-30T00:58:30;101941.31;;;26.96
64296;BMP280;51082;38.236;15.432;2023-09-30T00:59:32;101944.25;;;26.94
64296;BMP280;51082;38.236;15.432;2023-09-30T01:00:35;101938.13;;;26.94
64296;BMP280;51082;38.236;15.432;2023-09-30T01:01:36;101938.91;;;26.94
64296;BMP280;51082;38.236;15.432;2023-09-30T01:02:39;101935.44;;;26.94
64296;BMP280;51082;38.236;15.432;2023-09-30T01:03:43;101940.78;;;26.94
64296;BMP280;51082;38.236;15.432;2023-09-30T01:04:46;101946.94;;;26.94
64296;BMP280;51082;38.236;15.432;2023-09-30T01:05:48;101942.66;;;26.93
64296;BMP280;51082;38.236;15.432;2023-09-30T01:06:51;101940.25;;;26.92
64296;BMP280;51082;38.236;15.432;2023-09-30T01:07:52;101945.31;;;26.93
64296;BMP280;51082;38.236;15.432;2023-09-30T01:08:56;101948.00;;;26.93
64296;BMP280;51082;38.236;15.432;2023-09-30T01:09:58;101946.41;;;26.92
64296;BMP280;51082;38.236;15.432;2023-09-30T01:11:00;101944.53;;;26.93
64296;BMP280;51082;38.236;15.432;2023-09-30T01:12:03;101943.47;;;26.94
64296;BMP280;51082;38.236;15.432;2023-09-30T01:13:05;101937.31;;;26.93
64296;BMP280;51082;38.236;15.432;2023-09-30T01:14:26;101948.00;;;26.93
64296;BMP280;51082;38.236;15.432;2023-09-30T01:15:29;101948.00;;;26.93
64296;BMP280;51082;38.236;15.432;2023-09-30T01:16:31;101943.72;;;26.92
64296;BMP280;51082;38.236;15.432;2023-09-30T01:17:33;101951.75;;;26.92
64296;BMP280;51082;38.236;15.432;2023-09-30T01:18:35;101946.41;;;26.92
64296;BMP280;51082;38.236;15.432;2023-09-30T01:19:39;101950.16;;;26.91
64296;BMP280;51082;38.236;15.432;2023-09-30T01:20:41;101952.03;;;26.91
64296;BMP280;51082;38.236;15.432;2023-09-30T01:21:44;101951.75;;;26.92
64296;BMP280;51082;38.236;15.432;2023-09-30T01:22:49;101953.13;;;26.90
64296;BMP280;51082;38.236;15.432;2023-09-30T01:23:50;101953.88;;;26.90
64296;BMP280;51082;38.236;15.432;2023-09-30T01:24:53;101947.47;;;26.91
64296;BMP280;51082;38.236;15.432;2023-09-30T01:25:54;101950.44;;;26.90
64296;BMP280;51082;38.236;15.432;2023-09-30T01:26:57;101950.69;;;26.88
64296;BMP280;51082;38.236;15.432;2023-09-30T01:27:59;101948.53;;;26.90
64296;BMP280;51082;38.236;15.432;2023-09-30T01:29:07;101946.41;;;26.92
64296;BMP280;51082;38.236;15.432;2023-09-30T01:30:12;101951.75;;;26.92
64296;BMP280;51082;38.236;15.432;2023-09-30T01:31:14;101956.28;;;26.92
64296;BMP280;51082;38.236;15.432;2023-09-30T01:32:16;101951.75;;;26.92
64296;BMP280;51082;38.236;15.432;2023-09-30T01:33:19;101944.81;;;26.91
64296;BMP280;51082;38.236;15.432;2023-09-30T01:34:20;101950.16;;;26.91
64296;BMP280;51082;38.236;15.432;2023-09-30T01:35:22;101947.47;;;26.91
64296;BMP280;51082;38.236;15.432;2023-09-30T01:36:24;101950.94;;;26.92
64296;BMP280;51082;38.236;15.432;2023-09-30T01:37:28;101950.16;;;26.91
64296;BMP280;51082;38.236;15.432;2023-09-30T01:38:30;101950.16;;;26.91
64296;BMP280;51082;38.236;15.432;2023-09-30T01:39:32;101943.72;;;26.92
64296;BMP280;51082;38.236;15.432;2023-09-30T01:40:34;101949.88;;;26.88
64296;BMP280;51082;38.236;15.432;2023-09-30T01:41:36;101940.81;;;26.89
64296;BMP280;51082;38.236;15.432;2023-09-30T01:42:38;101943.75;;;26.87
64296;BMP280;51082;38.236;15.432;2023-09-30T01:43:40;101946.97;;;26.89
64296;BMP280;51082;38.236;15.432;2023-09-30T01:44:43;101938.41;;;26.87
64296;BMP280;51082;38.236;15.432;2023-09-30T01:45:44;101941.88;;;26.88
64296;BMP280;51082;38.236;15.432;2023-09-30T01:46:46;101938.41;;;26.87
64296;BMP280;51082;38.236;15.432;2023-09-30T01:47:48;101937.59;;;26.87
64296;BMP280;51082;38.236;15.432;2023-09-30T01:48:50;101938.41;;;26.87
64296;BMP280;51082;38.236;15.432;2023-09-30T01:49:52;101936.81;;;26.86
64296;BMP280;51082;38.236;15.432;2023-09-30T01:50:54;101938.44;;;26.82
64296;BMP280;51082;38.236;15.432;2023-09-30T01:51:56;101932.78;;;26.84
64296;BMP280;51082;38.236;15.432;2023-09-30T01:53:00;101934.16;;;26.81
64296;BMP280;51082;38.236;15.432;2023-09-30T01:54:01;101937.91;;;26.80
64296;BMP280;51082;38.236;15.432;2023-09-30T01:55:04;101937.38;;;26.83
64296;BMP280;51082;38.236;15.432;2023-09-30T01:56:06;101934.44;;;26.80
64296;BMP280;51082;38.236;15.432;2023-09-30T01:57:07;101936.31;;;26.79
64296;BMP280;51082;38.236;15.432;2023-09-30T01:58:10;101935.50;;;26.79
64296;BMP280;51082;38.236;15.432;2023-09-30T01:59:12;101941.41;;;26.76
64296;BMP280;51082;38.236;15.432;2023-09-30T02:00:14;101946.47;;;26.77
64296;BMP280;51082;38.236;15.432;2023-09-30T02:01:16;101943.25;;;26.75
64296;BMP280;51082;38.236;15.432;2023-09-30T02:02:18;101940.34;;;26.77
64296;BMP280;51082;38.236;15.432;2023-09-30T02:03:20;101938.75;;;26.76
64296;BMP280;51082;38.236;15.432;2023-09-30T02:04:22;101936.31;;;26.79
64296;BMP280;51082;38.236;15.432;2023-09-30T02:05:24;101941.13;;;26.77
64296;BMP280;51082;38.236;15.432;2023-09-30T02:06:27;101937.69;;;26.77
64296;BMP280;51082;38.236;15.432;2023-09-30T02:07:28;101940.34;;;26.77
64296;BMP280;51082;38.236;15.432;2023-09-30T02:08:31;101938.97;;;26.74
64296;BMP280;51082;38.236;15.432;2023-09-30T02:09:34;101950.25;;;26.76
64296;BMP280;51082;38.236;15.432;2023-09-30T02:10:36;101941.66;;;26.74
64296;BMP280;51082;38.236;15.432;2023-09-30T02:11:38;101937.91;;;26.75
64296;BMP280;51082;38.236;15.432;2023-09-30T02:12:42;101932.06;;;26.73
64296;BMP280;51082;38.236;15.432;2023-09-30T02:13:44;101935.53;;;26.74
64296;BMP280;51082;38.236;15.432;2023-09-30T02:14:46;101927.25;;;26.70
64296;BMP280;51082;38.236;15.432;2023-09-30T02:15:48;101936.31;;;26.74
64296;BMP280;51082;38.236;15.432;2023-09-30T02:16:50;101934.44;;;26.75
64296;BMP280;51082;38.236;15.432;2023-09-30T02:17:52;101931.53;;;26.76
64296;BMP280;51082;38.236;15.432;2023-09-30T02:18:54;101939.25;;;26.78
64296;BMP280;51082;38.236;15.432;2023-09-30T02:19:55;101944.59;;;26.78
64296;BMP280;51082;38.236;15.432;2023-09-30T02:20:58;101944.59;;;26.78
64296;BMP280;51082;38.236;15.432;2023-09-30T02:22:00;101946.47;;;26.77
64296;BMP280;51082;38.236;15.432;2023-09-30T02:23:03;101943.03;;;26.77
64296;BMP280;51082;38.236;15.432;2023-09-30T02:24:08;101943.03;;;26.77
64296;BMP280;51082;38.236;15.432;2023-09-30T02:25:11;101947.25;;;26.78
64296;BMP280;51082;38.236;15.432;2023-09-30T02:26:13;101949.13;;;26.77
64296;BMP280;51082;38.236;15.432;2023-09-30T02:27:16;101943.78;;;26.77
64296;BMP280;51082;38.236;15.432;2023-09-30T02:28:17;101950.75;;;26.78
64296;BMP280;51082;38.236;15.432;2023-09-30T02:29:19;101942.44;;;26.80
64296;BMP280;51082;38.236;15.432;2023-09-30T02:30:21;101940.03;;;26.78
64296;BMP280;51082;38.236;15.432;2023-09-30T02:31:23;101937.38;;;26.78
64296;BMP280;51082;38.236;15.432;2023-09-30T02:32:25;101946.19;;;26.79
64296;BMP280;51082;38.236;15.432;2023-09-30T02:33:27;101944.31;;;26.74
64296;BMP280;51082;38.236;15.432;2023-09-30T02:34:30;101933.38;;;26.71
64296;BMP280;51082;38.236;15.432;2023-09-30T02:35:31;101936.88;;;26.71
64296;BMP280;51082;38.236;15.432;2023-09-30T02:36:34;101936.34;;;26.69
64296;BMP280;51082;38.236;15.432;2023-09-30T02:37:40;101934.75;;;26.68
64296;BMP280;51082;38.236;15.432;2023-09-30T02:38:42;101927.84;;;26.67
64296;BMP280;51082;38.236;15.432;2023-09-30T02:39:45;101920.31;;;26.69
64296;BMP280;51082;38.236;15.432;2023-09-30T02:40:48;101919.25;;;26.70
64296;BMP280;51082;38.236;15.432;2023-09-30T02:41:50;101923.53;;;26.71
64296;BMP280;51082;38.236;15.432;2023-09-30T02:42:53;101925.38;;;26.71
64296;BMP280;51082;38.236;15.432;2023-09-30T02:43:55;101925.66;;;26.69
64296;BMP280;51082;38.236;15.432;2023-09-30T02:44:59;101916.34;;;26.67
64296;BMP280;51082;38.236;15.432;2023-09-30T02:46:01;101923.25;;;26.68
64296;BMP280;51082;38.236;15.432;2023-09-30T02:47:03;101914.47;;;26.67
64296;BMP280;51082;38.236;15.432;2023-09-30T02:48:06;101923.03;;;26.64
64296;BMP280;51082;38.236;15.432;2023-09-30T02:49:09;101925.94;;;26.68
64296;BMP280;51082;38.236;15.432;2023-09-30T02:50:11;101929.72;;;26.67
64296;BMP280;51082;38.236;15.432;2023-09-30T02:51:13;101932.88;;;26.69
64296;BMP280;51082;38.236;15.432;2023-09-30T02:52:15;101927.84;;;26.67
64296;BMP280;51082;38.236;15.432;2023-09-30T02:53:18;101929.41;;;26.68
64296;BMP280;51082;38.236;15.432;2023-09-30T02:54:19;101929.94;;;26.70
64296;BMP280;51082;38.236;15.432;2023-09-30T02:55:23;101931.00;;;26.69
64296;BMP280;51082;38.236;15.432;2023-09-30T02:56:25;101930.22;;;26.69
64296;BMP280;51082;38.236;15.432;2023-09-30T02:57:29;101930.22;;;26.69
64296;BMP280;51082;38.236;15.432;2023-09-30T02:58:32;101926.19;;;26.66
64296;BMP280;51082;38.236;15.432;2023-09-30T02:59:35;101933.94;;;26.68
64296;BMP280;51082;38.236;15.432;2023-09-30T03:00:37;101928.34;;;26.69
64296;BMP280;51082;38.236;15.432;2023-09-30T03:01:39;101921.13;;;26.70
64296;BMP280;51082;38.236;15.432;2023-09-30T03:02:41;101934.75;;;26.68
64296;BMP280;51082;38.236;15.432;2023-09-30T03:03:43;101924.06;;;26.68
64296;BMP280;51082;38.236;15.432;2023-09-30T03:04:45;101926.19;;;26.66
64296;BMP280;51082;38.236;15.432;2023-09-30T03:05:48;101928.34;;;26.69
64296;BMP280;51082;38.236;15.432;2023-09-30T03:06:51;101928.59;;;26.68
64296;BMP280;51082;38.236;15.432;2023-09-30T03:07:54;101924.88;;;26.69
64296;BMP280;51082;38.236;15.432;2023-09-30T03:08:56;101925.94;;;26.68
64296;BMP280;51082;38.236;15.432;2023-09-30T03:09:59;101921.94;;;26.65
64296;BMP280;51082;38.236;15.432;2023-09-30T03:11:08;101915.50;;;26.66
64296;BMP280;51082;38.236;15.432;2023-09-30T03:12:11;101922.50;;;26.67
64296;BMP280;51082;38.236;15.432;2023-09-30T03:13:13;101917.66;;;26.69
64296;BMP280;51082;38.236;15.432;2023-09-30T03:14:16;101924.88;;;26.69
64296;BMP280;51082;38.236;15.432;2023-09-30T03:15:17;101931.28;;;26.68
64296;BMP280;51082;38.236;15.432;2023-09-30T03:16:20;101924.06;;;26.68
64296;BMP280;51082;38.236;15.432;2023-09-30T03:17:21;101924.06;;;26.68
64296;BMP280;51082;38.236;15.432;2023-09-30T03:18:24;101928.34;;;26.69
64296;BMP280;51082;38.236;15.432;2023-09-30T03:19:27;101928.06;;;26.66
64296;BMP280;51082;38.236;15.432;2023-09-30T03:20:30;101924.59;;;26.65
64296;BMP280;51082;38.236;15.432;2023-09-30T03:21:31;101925.41;;;26.66
64296;BMP280;51082;38.236;15.432;2023-09-30T03:22:34;101924.38;;;26.67
64296;BMP280;51082;38.236;15.432;2023-09-30T03:23:36;101924.59;;;26.65
64296;BMP280;51082;38.236;15.432;2023-09-30T03:24:39;101918.19;;;26.66
64296;BMP280;51082;38.236;15.432;2023-09-30T03:25:41;101927.84;;;26.67
64296;BMP280;51082;38.236;15.432;2023-09-30T03:26:45;101920.84;;;26.66
64296;BMP280;51082;38.236;15.432;2023-09-30T03:27:47;101916.59;;;26.65
64296;BMP280;51082;38.236;15.432;2023-09-30T03:28:49;101918.72;;;26.68
64296;BMP280;51082;38.236;15.432;2023-09-30T03:29:51;101914.72;;;26.66
64296;BMP280;51082;38.236;15.432;2023-09-30T03:30:54;101914.72;;;26.66
64296;BMP280;51082;38.236;15.432;2023-09-30T03:31:55;101906.47;;;26.67
64296;BMP280;51082;38.236;15.432;2023-09-30T03:32:57;101909.66;;;26.64
64296;BMP280;51082;38.236;15.432;2023-09-30T03:34:00;101916.59;;;26.65
64296;BMP280;51082;38.236;15.432;2023-09-30T03:35:02;101919.25;;;26.65
64296;BMP280;51082;38.236;15.432;2023-09-30T03:36:08;101920.84;;;26.66
64296;BMP280;51082;38.236;15.432;2023-09-30T03:37:10;101925.16;;;26.67
64296;BMP280;51082;38.236;15.432;2023-09-30T03:38:12;101920.34;;;26.64
64296;BMP280;51082;38.236;15.432;2023-09-30T03:39:14;101928.38;;;26.64
64296;BMP280;51082;38.236;15.432;2023-09-30T03:40:18;101916.88;;;26.64
64296;BMP280;51082;38.236;15.432;2023-09-30T03:41:20;101924.91;;;26.64
64296;BMP280;51082;38.236;15.432;2023-09-30T03:42:24;101925.97;;;26.63
64296;BMP280;51082;38.236;15.432;2023-09-30T03:43:25;101916.09;;;26.63
64296;BMP280;51082;38.236;15.432;2023-09-30T03:44:28;101921.44;;;26.63
64296;BMP280;51082;38.236;15.432;2023-09-30T03:45:29;101928.38;;;26.64
64296;BMP280;51082;38.236;15.432;2023-09-30T03:46:33;101919.25;;;26.65
64296;BMP280;51082;38.236;15.432;2023-09-30T03:47:35;101924.59;;;26.65
64296;BMP280;51082;38.236;15.432;2023-09-30T03:48:38;101920.34;;;26.64
64296;BMP280;51082;38.236;15.432;2023-09-30T03:49:40;101926.47;;;26.65
64296;BMP280;51082;38.236;15.432;2023-09-30T03:50:43;101924.59;;;26.65
64296;BMP280;51082;38.236;15.432;2023-09-30T03:51:44;101932.63;;;26.65
64296;BMP280;51082;38.236;15.432;2023-09-30T03:52:47;101928.38;;;26.64
64296;BMP280;51082;38.236;15.432;2023-09-30T03:53:48;101930.25;;;26.64
64296;BMP280;51082;38.236;15.432;2023-09-30T03:54:51;101931.53;;;26.66
64296;BMP280;51082;38.236;15.432;2023-09-30T03:55:53;101926.47;;;26.65
64296;BMP280;51082;38.236;15.432;2023-09-30T03:56:56;101925.41;;;26.66
64296;BMP280;51082;38.236;15.432;2023-09-30T03:57:59;101925.69;;;26.64
64296;BMP280;51082;38.236;15.432;2023-09-30T03:59:04;101934.50;;;26.65
64296;BMP280;51082;38.236;15.432;2023-09-30T04:00:06;101930.75;;;26.66
64296;BMP280;51082;38.236;15.432;2023-09-30T04:01:08;101932.13;;;26.63
64296;BMP280;51082;38.236;15.432;2023-09-30T04:02:12;101929.44;;;26.63
64296;BMP280;51082;38.236;15.432;2023-09-30T04:03:15;101936.38;;;26.64
64296;BMP280;51082;38.236;15.432;2023-09-30T04:04:18;101929.94;;;26.65
64296;BMP280;51082;38.236;15.432;2023-09-30T04:05:20;101931.03;;;26.64
64296;BMP280;51082;38.236;15.432;2023-09-30T04:06:27;101932.91;;;26.64
64296;BMP280;51082;38.236;15.432;2023-09-30T04:07:30;101932.91;;;26.64
64296;BMP280;51082;38.236;15.432;2023-09-30T04:08:33;101929.16;;;26.65
64296;BMP280;51082;38.236;15.432;2023-09-30T04:09:35;101935.28;;;26.65
64296;BMP280;51082;38.236;15.432;2023-09-30T04:10:38;101932.91;;;26.64
64296;BMP280;51082;38.236;15.432;2023-09-30T04:11:39;101942.00;;;26.63
64296;BMP280;51082;38.236;15.432;2023-09-30T04:12:43;101936.91;;;26.61
64296;BMP280;51082;38.236;15.432;2023-09-30T04:13:46;101933.97;;;26.63
64296;BMP280;51082;38.236;15.432;2023-09-30T04:14:48;101940.13;;;26.63
64296;BMP280;51082;38.236;15.432;2023-09-30T04:15:50;101936.66;;;26.63
64296;BMP280;51082;38.236;15.432;2023-09-30T04:16:52;101940.38;;;26.61
64296;BMP280;51082;38.236;15.432;2023-09-30T04:17:55;101946.53;;;26.62
64296;BMP280;51082;38.236;15.432;2023-09-30T04:18:57;101938.81;;;26.60
64296;BMP280;51082;38.236;15.432;2023-09-30T04:19:59;101945.72;;;26.61
64296;BMP280;51082;38.236;15.432;2023-09-30T04:21:02;101947.34;;;26.63
64296;BMP280;51082;38.236;15.432;2023-09-30T04:22:05;101942.53;;;26.59
64296;BMP280;51082;38.236;15.432;2023-09-30T04:23:07;101944.91;;;26.61
64296;BMP280;51082;38.236;15.432;2023-09-30T04:24:11;101957.78;;;26.59
64296;BMP280;51082;38.236;15.432;2023-09-30T04:25:12;101943.34;;;26.60
64296;BMP280;51082;38.236;15.432;2023-09-30T04:26:17;101943.34;;;26.60
64296;BMP280;51082;38.236;15.432;2023-09-30T04:27:18;101938.81;;;26.60
64296;BMP280;51082;38.236;15.432;2023-09-30T04:28:21;101943.34;;;26.60
64296;BMP280;51082;38.236;15.432;2023-09-30T04:29:24;101943.34;;;26.60
64296;BMP280;51082;38.236;15.432;2023-09-30T04:30:26;101941.75;;;26.59
64296;BMP280;51082;38.236;15.432;2023-09-30T04:31:28;101955.09;;;26.59
64296;BMP280;51082;38.236;15.432;2023-09-30T04:32:31;101948.69;;;26.60
64296;BMP280;51082;38.236;15.432;2023-09-30T04:33:32;101948.69;;;26.60
64296;BMP280;51082;38.236;15.432;2023-09-30T04:34:36;101954.03;;;26.60
64296;BMP280;51082;38.236;15.432;2023-09-30T04:35:38;101951.34;;;26.60
64296;BMP280;51082;38.236;15.432;2023-09-30T04:36:40;101952.44;;;26.59
64296;BMP280;51082;38.236;15.432;2023-09-30T04:37:43;101959.38;;;26.60
64296;BMP280;51082;38.236;15.432;2023-09-30T04:38:46;101957.78;;;26.59
64296;BMP280;51082;38.236;15.432;2023-09-30T04:39:48;101956.16;;;26.58
64296;BMP280;51082;38.236;15.432;2023-09-30T04:40:50;101955.09;;;26.59
64296;BMP280;51082;38.236;15.432;2023-09-30T04:41:52;101948.16;;;26.58
64296;BMP280;51082;38.236;15.432;2023-09-30T04:42:56;101943.88;;;26.57
64296;BMP280;51082;38.236;15.432;2023-09-30T04:43:59;101942.25;;;26.61
64296;BMP280;51082;38.236;15.432;2023-09-30T04:45:04;101938.00;;;26.60
64296;BMP280;51082;38.236;15.432;2023-09-30T04:46:07;101943.34;;;26.60
64296;BMP280;51082;38.236;15.432;2023-09-30T04:47:10;101938.00;;;26.60
64296;BMP280;51082;38.236;15.432;2023-09-30T04:48:11;101936.41;;;26.59
64296;BMP280;51082;38.236;15.432;2023-09-30T04:49:14;101947.88;;;26.59
64296;BMP280;51082;38.236;15.432;2023-09-30T04:50:16;101947.09;;;26.59
64296;BMP280;51082;38.236;15.432;2023-09-30T04:51:20;101951.34;;;26.60
64296;BMP280;51082;38.236;15.432;2023-09-30T04:52:21;101952.44;;;26.59
64296;BMP280;51082;38.236;15.432;2023-09-30T04:53:28;101957.78;;;26.59
64296;BMP280;51082;38.236;15.432;2023-09-30T04:54:30;101963.91;;;26.59
64296;BMP280;51082;38.236;15.432;2023-09-30T04:55:32;101969.25;;;26.59
64296;BMP280;51082;38.236;15.432;2023-09-30T04:56:34;101965.78;;;26.59
64296;BMP280;51082;38.236;15.432;2023-09-30T04:57:37;101964.72;;;26.60
64296;BMP280;51082;38.236;15.432;2023-09-30T04:58:38;101960.44;;;26.59
64296;BMP280;51082;38.236;15.432;2023-09-30T04:59:41;101964.19;;;26.58
64296;BMP280;51082;38.236;15.432;2023-09-30T05:00:45;101957.78;;;26.59
64296;BMP280;51082;38.236;15.432;2023-09-30T05:01:47;101955.59;;;26.61
64296;BMP280;51082;38.236;15.432;2023-09-30T05:02:48;101950.56;;;26.59
64296;BMP280;51082;38.236;15.432;2023-09-30T05:03:50;101951.34;;;26.60
64296;BMP280;51082;38.236;15.432;2023-09-30T05:04:53;101956.16;;;26.58
64296;BMP280;51082;38.236;15.432;2023-09-30T05:05:54;101955.41;;;26.57
64296;BMP280;51082;38.236;15.432;2023-09-30T05:06:57;101959.91;;;26.57
64296;BMP280;51082;38.236;15.432;2023-09-30T05:07:59;101954.31;;;26.58
64296;BMP280;51082;38.236;15.432;2023-09-30T05:09:01;101963.13;;;26.59
64296;BMP280;51082;38.236;15.432;2023-09-30T05:10:04;101956.97;;;26.58
64296;BMP280;51082;38.236;15.432;2023-09-30T05:11:06;101959.63;;;26.58
64296;BMP280;51082;38.236;15.432;2023-09-30T05:12:09;101959.38;;;26.60
64296;BMP280;51082;38.236;15.432;2023-09-30T05:13:10;101956.16;;;26.58
64296;BMP280;51082;38.236;15.432;2023-09-30T05:14:13;101957.78;;;26.59
64296;BMP280;51082;38.236;15.432;2023-09-30T05:15:15;101958.84;;;26.58
64296;BMP280;51082;38.236;15.432;2023-09-30T05:16:19;101965.25;;;26.57
64296;BMP280;51082;38.236;15.432;2023-09-30T05:17:21;101961.50;;;26.58
64296;BMP280;51082;38.236;15.432;2023-09-30T05:18:24;101965.25;;;26.57
64296;BMP280;51082;38.236;15.432;2023-09-30T05:19:25;101956.72;;;26.55
64296;BMP280;51082;38.236;15.432;2023-09-30T05:20:27;101967.13;;;26.56
64296;BMP280;51082;38.236;15.432;2023-09-30T05:21:29;101963.66;;;26.56
64296;BMP280;51082;38.236;15.432;2023-09-30T05:22:32;101962.56;;;26.57
64296;BMP280;51082;38.236;15.432;2023-09-30T05:23:33;101962.84;;;26.55
64296;BMP280;51082;38.236;15.432;2023-09-30T05:24:36;101956.72;;;26.55
64296;BMP280;51082;38.236;15.432;2023-09-30T05:25:38;101963.66;;;26.56
64296;BMP280;51082;38.236;15.432;2023-09-30T05:26:41;101959.09;;;26.56
64296;BMP280;51082;38.236;15.432;2023-09-30T05:27:42;101966.84;;;26.58
64296;BMP280;51082;38.236;15.432;2023-09-30T05:28:45;101962.31;;;26.58
64296;BMP280;51082;38.236;15.432;2023-09-30T05:29:47;101958.06;;;26.57
64296;BMP280;51082;38.236;15.432;2023-09-30T05:30:49;101959.09;;;26.56
64296;BMP280;51082;38.236;15.432;2023-09-30T05:31:54;101959.91;;;26.57
64296;BMP280;51082;38.236;15.432;2023-09-30T05:32:55;101959.91;;;26.57
64296;BMP280;51082;38.236;15.432;2023-09-30T05:33:59;101969.53;;;26.58
64296;BMP280;51082;38.236;15.432;2023-09-30T05:35:04;101964.72;;;26.60
64296;BMP280;51082;38.236;15.432;2023-09-30T05:36:06;101965.25;;;26.57
64296;BMP280;51082;38.236;15.432;2023-09-30T05:37:08;101965.78;;;26.59
64296;BMP280;51082;38.236;15.432;2023-09-30T05:38:10;101973.81;;;26.59
64296;BMP280;51082;38.236;15.432;2023-09-30T05:39:13;101961.50;;;26.58
64296;BMP280;51082;38.236;15.432;2023-09-30T05:40:20;101967.94;;;26.57
64296;BMP280;51082;38.236;15.432;2023-09-30T05:41:24;101969.00;;;26.56
64296;BMP280;51082;38.236;15.432;2023-09-30T05:42:28;101966.31;;;26.56
64296;BMP280;51082;38.236;15.432;2023-09-30T05:43:31;101969.78;;;26.56
64296;BMP280;51082;38.236;15.432;2023-09-30T05:44:33;101964.44;;;26.56
64296;BMP280;51082;38.236;15.432;2023-09-30T05:45:35;101964.72;;;26.55
64296;BMP280;51082;38.236;15.432;2023-09-30T05:46:37;101960.97;;;26.56
64296;BMP280;51082;38.236;15.432;2023-09-30T05:47:41;101965.81;;;26.54
64296;BMP280;51082;38.236;15.432;2023-09-30T05:48:42;101956.72;;;26.55
64296;BMP280;51082;38.236;15.432;2023-09-30T05:49:45;101956.72;;;26.55